YAY weather

St. Anthony Airport
St. Anthony, Newfoundland and Labrador, Canada

Public forecast

Using degrees Celsius for public forecast. Weather courtesy of forecast.io.

Current aviation weather report (METAR) for St. Anthony Airport

Retrieved 2020/04/04 18:00 UTC (9 minutes ago):

CYAY 041800Z AUTO 34004KT 320V020 9SM OVC026 M02/M08 A3005 RMK SLP178

Aviation forecast (TAF) for St. Anthony Airport

Retrieved 2020/04/04 14:42 UTC (3 hours ago):

TAF CYAY 041338Z 0414/0502 32012KT P6SM BKN025 BKN170 TEMPO 0414/0420 BKN020 OVC070 FM042000 28006KT 5SM -SN OVC030 FM042200 28005KT 3SM -SN OVC020 PROB40 0422/0502 2SM -SN RMK FCST BASED ON AUTO OBS NXT FCST BY 042000Z